»·PEaware :: N32314 KSBA-KCMA

N32314 :: KSBA-KCMA

FLIGHT INFORMATION

Flight Status: Arrived
Operator: Privately registered:
United States
More flights under this callsign
Pilot: John O. (31453)
Aircraft: CESSNA 172 SKYHAWK
(C172)
More flights by this aircraft type
Origin: KSBA Santa Barbara Mun
United States
Destination: KCMA Camarillo
United States
More flights between these airports :: More routes between these airports
Route: +
File this flight plan on PilotEdge
Remarks:
Altitude:
(Current/Filed)
3,500ft
Speed:
(Current/Filed)
0kts
Departed: 04-Nov-20 02:23 PM
Arrived: 04-Nov-20 02:55 PM
Distance/Time
Traveled:
39nm/0:31
Distance/Time
To Go:
Arrived

Flight Plot

Page will automatically refresh every two minutes.


Map Options




Map Legend


Flown Route
Filed Route
Departure Airport
Arrival Airport
Navaid (VOR, NDB)
Fix

Horizontal Profiles

Position Reports

Time Latitude Longitude Heading Altitude Ground
Speed
04-Nov-20 14:15 34.423716 -119.836695 269 15ft 0kts
04-Nov-20 14:16 34.423716 -119.836695 269 15ft 0kts
04-Nov-20 14:17 34.423716 -119.836695 269 15ft 0kts
04-Nov-20 14:18 34.426161 -119.838184 344 17ft 15kts
04-Nov-20 14:19 34.427078 -119.834623 1 16ft 1kts
04-Nov-20 14:20 34.427078 -119.834623 2 16ft 0kts
04-Nov-20 14:21 34.427079 -119.834623 2 16ft 0kts
04-Nov-20 14:22 34.427793 -119.840487 267 19ft 74kts
04-Nov-20 14:23 34.425824 -119.870399 262 647ft 93kts
04-Nov-20 14:24 34.420298 -119.902708 261 1297ft 96kts
04-Nov-20 14:25 34.412912 -119.938395 252 1549ft 118kts
04-Nov-20 14:26 34.392616 -119.952763 121 1929ft 112kts
04-Nov-20 14:27 34.387809 -119.918257 73 2333ft 106kts
04-Nov-20 14:28 34.393730 -119.882976 77 2737ft 106kts
04-Nov-20 14:29 34.399613 -119.847876 77 3137ft 106kts
04-Nov-20 14:30 34.405594 -119.812421 77 3471ft 111kts
04-Nov-20 14:31 34.406791 -119.774653 116 3507ft 121kts
04-Nov-20 14:32 34.395501 -119.735958 106 3506ft 120kts
04-Nov-20 14:33 34.385526 -119.700228 106 3503ft 108kts
04-Nov-20 14:34 34.375925 -119.665998 106 3505ft 107kts
04-Nov-20 14:35 34.366328 -119.631846 106 3504ft 107kts
04-Nov-20 14:36 34.356727 -119.597716 106 3503ft 106kts
04-Nov-20 14:37 34.347102 -119.563547 106 3501ft 107kts
04-Nov-20 14:38 34.337533 -119.529618 106 3501ft 106kts
04-Nov-20 14:39 34.327932 -119.495616 106 3501ft 106kts
04-Nov-20 14:40 34.318315 -119.461596 106 3503ft 107kts
04-Nov-20 14:41 34.308690 -119.427589 106 3504ft 106kts
04-Nov-20 14:42 34.299032 -119.393506 106 3505ft 107kts
04-Nov-20 14:43 34.289380 -119.359487 106 3505ft 107kts
04-Nov-20 14:44 34.279495 -119.324700 106 3294ft 115kts
04-Nov-20 14:45 34.268889 -119.287402 106 2691ft 117kts
04-Nov-20 14:46 34.258710 -119.251657 105 2354ft 110kts
04-Nov-20 14:47 34.249098 -119.217949 105 2220ft 101kts
04-Nov-20 14:48 34.240113 -119.186471 105 2207ft 97kts
04-Nov-20 14:49 34.230211 -119.151864 105 1568ft 112kts
04-Nov-20 14:50 34.221490 -119.118648 96 1072ft 93kts
04-Nov-20 14:51 34.218583 -119.088814 88 968ft 88kts
04-Nov-20 14:52 34.211158 -119.065698 199 741ft 88kts
04-Nov-20 14:53 34.213731 -119.088492 286 74ft 52kts
04-Nov-20 14:54 34.212906 -119.095589 195 74ft 0kts
04-Nov-20 14:55 34.210693 -119.094189 287 71ft 1kts
04-Nov-20 14:56 34.210739 -119.094228 357 72ft 0kts
04-Nov-20 14:57 34.210739 -119.094228 357 72ft 0kts
04-Nov-20 14:58 34.210739 -119.094228 357 72ft 0kts
04-Nov-20 14:59 34.210739 -119.094228 357 72ft 0kts
04-Nov-20 15:00 34.210739 -119.094228 357 72ft 0kts
04-Nov-20 15:01 34.210739 -119.094228 357 72ft 0kts
04-Nov-20 15:02 34.210739 -119.094228 357 72ft 0kts
04-Nov-20 15:03 34.210739 -119.094228 357 72ft 0kts
04-Nov-20 15:05 34.210739 -119.094228 357 72ft 0kts
04-Nov-20 15:06 34.210739 -119.094228 357 72ft 0kts
04-Nov-20 15:07 34.210739 -119.094228 357 72ft 0kts

Navigation Log

Ident Type
Flight plan parsing failed, navigation log unavailable